Time;durP1;ratioP1;P1;durP2;ratioP2;P2;SDS_P1;SDS_P2;PMS_P1;PMS_P2;Temp;Humidity;BMP_temperature;BMP_pressure;BME280_temperature;BME280_humidity;BME280_pressure;Samples;Min_cycle;Max_cycle;Signal;HPM_P1;HPM_P2
2022/02/09 00:00:09;;;;;;;9.68;4.43;;;2.30;87.40;;;;;;5096502;28;20484;-75
2022/02/09 00:02:59;;;;;;;14.93;4.75;;;2.20;87.60;;;;;;5096541;28;20080;-76
2022/02/09 00:05:30;;;;;;;14.23;5.03;;;2.30;88.00;;;;;;5096222;28;20483;-75
2022/02/09 00:10:21;;;;;;;10.85;4.25;;;2.30;87.20;;;;;;5114472;28;20507;-75
2022/02/09 00:12:57;;;;;;;15.25;4.20;;;2.30;87.40;;;;;;5096178;28;20464;-76
2022/02/09 00:15:40;;;;;;;13.65;4.38;;;2.30;87.40;;;;;;5096075;28;20059;-75
2022/02/09 00:18:20;;;;;;;8.10;3.75;;;2.20;87.30;;;;;;5096188;28;20468;-75
2022/02/09 00:23:45;;;;;;;11.38;4.63;;;2.20;87.20;;;;;;5114316;28;20015;-75
2022/02/09 00:27:39;;;;;;;15.88;4.75;;;2.20;87.40;;;;;;5095894;28;20031;-75
2022/02/09 00:29:31;;;;;;;13.40;4.00;;;2.20;87.20;;;;;;5100524;28;20074;-75
2022/02/09 00:32:15;;;;;;;8.27;4.22;;;2.20;87.00;;;;;;5113946;28;20038;-75
2022/02/09 00:37:31;;;;;;;11.65;4.22;;;2.10;87.10;;;;;;5113921;28;20016;-74
2022/02/09 00:40:28;;;;;;;13.70;5.07;;;2.00;87.10;;;;;;5095767;28;20070;-74
2022/02/09 00:43:19;;;;;;;14.18;4.55;;;2.00;87.40;;;;;;5113753;28;20087;-74
2022/02/09 00:59:57;;;;;;;10.85;4.00;;;2.10;87.40;;;;;;5114071;28;20047;-74
2022/02/09 01:41:14;;;;;;;8.18;3.53;;;1.70;88.50;;;;;;5113627;28;20054;-76
2022/02/09 01:56:35;;;;;;;10.52;4.28;;;1.90;88.00;;;;;;5113567;28;20516;-75
2022/02/09 01:59:02;;;;;;;11.25;3.90;;;1.90;87.80;;;;;;5098969;28;20024;-75
2022/02/09 02:01:28;;;;;;;12.38;3.88;;;1.90;87.90;;;;;;5099008;28;20379;-75
2022/02/09 02:03:54;;;;;;;10.85;4.53;;;1.90;87.80;;;;;;5098973;28;20115;-75
2022/02/09 02:06:20;;;;;;;8.52;3.80;;;1.90;87.80;;;;;;5098567;28;20043;-75
2022/02/09 02:08:48;;;;;;;13.18;4.53;;;2.00;87.80;;;;;;5098881;28;20486;-75
2022/02/09 02:11:23;;;;;;;12.80;4.82;;;2.00;87.80;;;;;;5098630;28;20028;-75
2022/02/09 02:16:36;;;;;;;12.00;4.47;;;2.10;87.60;;;;;;5116712;28;20065;-75
2022/02/09 02:19:08;;;;;;;13.55;4.10;;;2.00;87.30;;;;;;5098472;28;20034;-75
2022/02/09 02:21:54;;;;;;;10.73;3.85;;;2.10;87.20;;;;;;5098611;28;20387;-76
2022/02/09 02:27:00;;;;;;;11.77;4.10;;;2.00;87.50;;;;;;5116699;28;20023;-75
2022/02/09 03:09:54;;;;;;;8.30;3.30;;;1.90;88.90;;;;;;5115774;28;20027;-76
2022/02/09 03:14:56;;;;;;;10.55;3.60;;;1.90;89.00;;;;;;5115587;28;20043;-76
2022/02/09 03:17:31;;;;;;;11.43;3.80;;;1.90;88.90;;;;;;5097343;28;20024;-76
2022/02/09 03:20:03;;;;;;;10.93;3.95;;;1.90;88.70;;;;;;5097401;28;20123;-76
2022/02/09 03:22:48;;;;;;;6.82;2.85;;;1.90;88.40;;;;;;5097361;28;20031;-76
2022/02/09 03:50:06;;;;;;;10.02;3.85;;;1.80;88.40;;;;;;5114892;28;20019;-76
2022/02/09 03:52:22;;;;;;;12.95;3.72;;;1.80;88.20;;;;;;5111506;28;20108;-76
2022/02/09 03:57:25;;;;;;;10.57;3.33;;;1.70;88.20;;;;;;5114771;28;20019;-75
2022/02/09 03:59:51;;;;;;;9.80;3.40;;;1.70;88.70;;;;;;5096613;28;20027;-75
2022/02/09 04:02:17;;;;;;;6.43;2.72;;;1.70;88.70;;;;;;5096380;28;20034;-75
2022/02/09 04:04:43;;;;;;;12.32;3.10;;;1.70;88.60;;;;;;5096306;28;20041;-75
2022/02/09 04:07:11;;;;;;;12.10;3.08;;;1.80;88.50;;;;;;5096262;28;20475;-75
2022/02/09 04:09:40;;;;;;;10.25;3.13;;;1.80;88.40;;;;;;5096442;28;20081;-75
2022/02/09 04:14:59;;;;;;;6.95;3.00;;;1.80;88.30;;;;;;5088407;28;20125;-76
2022/02/09 04:17:36;;;;;;;10.02;3.30;;;1.80;88.40;;;;;;5096081;28;20076;-75
2022/02/09 04:36:01;;;;;;;10.20;3.35;;;1.80;88.70;;;;;;5114688;28;20085;-75
2022/02/09 04:39:26;;;;;;;8.63;3.42;;;1.80;88.70;;;;;;5114346;28;20080;-75
2022/02/09 04:50:07;;;;;;;8.43;3.45;;;1.80;88.80;;;;;;5113864;28;20027;-75
2022/02/09 04:52:56;;;;;;;7.45;4.00;;;1.80;88.00;;;;;;5095706;28;20015;-75
2022/02/09 04:58:04;;;;;;;8.50;3.57;;;1.60;87.80;;;;;;5113751;28;20378;-75
2022/02/09 05:03:40;;;;;;;12.93;4.65;;;1.50;89.10;;;;;;5113615;28;20035;-76
2022/02/09 05:22:36;;;;;;;14.05;3.90;;;1.40;88.80;;;;;;5113404;28;20103;-76
2022/02/09 05:27:53;;;;;;;7.10;3.05;;;1.50;89.30;;;;;;5113370;28;20054;-75
2022/02/09 05:30:19;;;;;;;15.27;4.07;;;1.50;89.10;;;;;;5095019;28;20031;-75
2022/02/09 05:32:46;;;;;;;11.00;3.30;;;1.50;88.60;;;;;;5098789;28;20118;-74
2022/02/09 05:35:11;;;;;;;9.32;3.92;;;1.50;88.70;;;;;;5099243;28;20045;-75
2022/02/09 05:37:37;;;;;;;7.65;3.80;;;1.60;88.60;;;;;;5099300;28;20042;-75
2022/02/09 05:40:03;;;;;;;9.82;4.25;;;1.60;88.60;;;;;;5099240;28;20051;-75
2022/02/09 05:42:29;;;;;;;11.00;4.47;;;1.50;88.80;;;;;;5099225;28;20043;-75
2022/02/09 05:44:54;;;;;;;9.27;4.13;;;1.50;88.80;;;;;;5098972;28;20036;-75
2022/02/09 05:50:08;;;;;;;9.23;3.85;;;1.50;88.00;;;;;;5117419;28;20020;-76
2022/02/09 05:58:32;;;;;;;10.27;3.92;;;1.30;88.00;;;;;;5087785;28;20031;-75
2022/02/09 06:00:55;;;;;;;7.45;3.50;;;1.30;88.20;;;;;;5116488;28;20032;-75
2022/02/09 06:03:20;;;;;;;13.65;3.58;;;1.30;88.40;;;;;;5098677;28;20486;-76
2022/02/09 06:05:47;;;;;;;12.70;3.67;;;1.30;88.30;;;;;;5098943;28;20081;-75
2022/02/09 06:08:13;;;;;;;7.22;3.65;;;1.30;88.00;;;;;;5098885;28;20026;-75
2022/02/09 06:10:40;;;;;;;7.57;3.17;;;1.30;87.50;;;;;;5099294;28;20032;-76
2022/02/09 06:20:57;;;;;;;7.18;3.83;;;1.30;87.00;;;;;;5139014;28;20056;-77
2022/02/09 06:23:24;;;;;;;8.02;3.88;;;1.30;86.60;;;;;;5119639;28;20051;-76
2022/02/09 06:25:49;;;;;;;12.68;3.80;;;1.30;86.70;;;;;;5102790;28;20031;-77
2022/02/09 06:28:15;;;;;;;8.65;4.57;;;1.20;86.70;;;;;;5098051;28;20443;-76
2022/02/09 06:30:40;;;;;;;10.65;3.75;;;1.20;87.00;;;;;;5097510;28;20502;-75
2022/02/09 06:33:06;;;;;;;7.10;3.65;;;1.20;87.80;;;;;;5097576;28;20035;-75
2022/02/09 06:35:33;;;;;;;11.38;4.30;;;1.30;87.10;;;;;;5097820;28;20023;-76
2022/02/09 06:38:00;;;;;;;10.02;4.30;;;1.30;86.70;;;;;;5097847;28;20032;-77
2022/02/09 06:40:28;;;;;;;11.43;4.60;;;1.20;86.20;;;;;;5097885;28;20035;-77
2022/02/09 06:42:54;;;;;;;9.55;4.28;;;1.20;86.80;;;;;;5096724;28;20054;-77
2022/02/09 06:45:23;;;;;;;10.55;5.32;;;1.10;87.00;;;;;;5097672;28;20441;-77
2022/02/09 06:47:50;;;;;;;10.68;4.22;;;1.20;87.30;;;;;;5097744;28;20271;-77
2022/02/09 06:50:33;;;;;;;8.45;4.72;;;1.20;88.30;;;;;;5097513;28;20544;-77
2022/02/09 06:55:51;;;;;;;13.00;5.63;;;1.30;87.60;;;;;;5115971;28;20101;-77
2022/02/09 06:58:21;;;;;;;9.63;5.75;;;1.40;88.10;;;;;;5097552;28;20027;-76
2022/02/09 07:00:46;;;;;;;15.85;4.68;;;1.40;87.50;;;;;;5097483;28;20028;-76
2022/02/09 07:03:13;;;;;;;12.85;5.50;;;1.50;87.50;;;;;;5097112;28;20024;-76
2022/02/09 07:05:39;;;;;;;15.30;5.53;;;1.50;87.70;;;;;;5097305;28;20036;-76
2022/02/09 07:08:05;;;;;;;10.57;4.90;;;1.50;88.10;;;;;;5097589;28;20020;-76
2022/02/09 07:10:32;;;;;;;10.10;4.70;;;1.50;88.50;;;;;;5097442;28;20490;-76
2022/02/09 07:12:57;;;;;;;14.02;5.22;;;1.50;88.70;;;;;;5097166;28;20023;-76
2022/02/09 07:15:30;;;;;;;11.20;4.68;;;1.60;88.80;;;;;;5097003;28;20054;-76
2022/02/09 07:17:56;;;;;;;8.43;4.00;;;1.60;88.80;;;;;;5097401;28;20054;-76
2022/02/09 07:20:27;;;;;;;11.77;4.05;;;1.70;88.90;;;;;;5115528;28;20031;-76
2022/02/09 07:22:56;;;;;;;10.73;3.92;;;1.70;88.90;;;;;;5097256;28;20114;-76
2022/02/09 07:25:30;;;;;;;10.25;3.97;;;1.80;88.90;;;;;;5097051;28;20024;-76
2022/02/09 07:27:56;;;;;;;7.30;3.90;;;1.90;88.80;;;;;;5097078;28;20058;-76
2022/02/09 07:30:24;;;;;;;9.10;4.00;;;2.00;88.50;;;;;;5096590;28;20066;-76
2022/02/09 07:32:51;;;;;;;8.55;3.80;;;2.10;88.80;;;;;;5096705;28;20024;-78
2022/02/09 07:35:17;;;;;;;13.43;5.25;;;2.20;88.50;;;;;;5096703;28;20175;-76
2022/02/09 07:37:44;;;;;;;8.27;4.47;;;2.20;87.50;;;;;;5115214;28;20087;-76
2022/02/09 07:40:12;;;;;;;8.68;4.72;;;2.20;86.90;;;;;;5115086;28;20024;-77
2022/02/09 07:42:47;;;;;;;8.73;4.82;;;2.10;86.50;;;;;;5096666;28;20083;-76
2022/02/09 07:47:59;;;;;;;16.08;8.65;;;2.20;86.50;;;;;;5114745;28;20027;-75
2022/02/09 07:52:55;;;;;;;14.77;8.35;;;2.30;85.80;;;;;;5114636;28;20468;-76
2022/02/09 07:55:21;;;;;;;13.30;6.38;;;2.30;85.80;;;;;;5094871;28;20023;-75
2022/02/09 07:57:47;;;;;;;15.60;7.20;;;2.40;86.00;;;;;;5096012;28;20080;-76
2022/02/09 08:00:13;;;;;;;14.50;7.13;;;2.40;86.00;;;;;;5096255;28;20019;-75
2022/02/09 08:02:40;;;;;;;12.13;5.20;;;2.50;86.30;;;;;;5095915;28;20020;-76
2022/02/09 08:05:06;;;;;;;11.70;5.15;;;2.70;86.30;;;;;;5095905;28;20399;-77
2022/02/09 08:07:31;;;;;;;7.40;4.25;;;2.80;86.40;;;;;;5095987;28;20019;-76
2022/02/09 08:09:59;;;;;;;10.02;3.83;;;2.90;86.30;;;;;;5095600;28;20023;-76
2022/02/09 08:12:51;;;;;;;9.25;4.95;;;3.10;86.20;;;;;;5095298;28;20026;-78
2022/02/09 08:24:07;;;;;;;20.52;9.80;;;4.60;84.30;;;;;;5079777;28;20038;-78
2022/02/09 08:32:24;;;;;;;10.52;6.38;;;5.90;79.70;;;;;;5115599;28;20437;-80
2022/02/09 08:34:31;;;;;;;12.13;6.57;;;6.10;76.80;;;;;;5113989;28;20076;-81
2022/02/09 08:36:57;;;;;;;13.32;6.20;;;6.30;75.60;;;;;;5095688;28;20378;-75
2022/02/09 08:39:23;;;;;;;9.75;5.88;;;6.50;74.60;;;;;;5118689;27;20027;-82
2022/02/09 08:41:49;;;;;;;11.15;6.35;;;6.90;73.70;;;;;;5116202;27;20380;-83
2022/02/09 08:44:15;;;;;;;10.68;5.95;;;7.00;72.00;;;;;;5116376;27;20030;-80
2022/02/09 08:46:42;;;;;;;10.88;5.78;;;7.20;71.30;;;;;;5116321;27;20080;-78
2022/02/09 08:49:09;;;;;;;11.80;6.25;;;7.30;71.00;;;;;;5115799;27;20027;-81
2022/02/09 08:51:35;;;;;;;15.48;6.80;;;7.60;70.20;;;;;;5134467;27;20027;-77
2022/02/09 08:54:02;;;;;;;11.98;6.97;;;7.60;69.40;;;;;;5115426;27;20019;-81
2022/02/09 08:56:29;;;;;;;11.32;6.75;;;7.80;69.50;;;;;;5134441;27;20487;-80
2022/02/09 08:58:57;;;;;;;11.85;6.03;;;7.80;69.20;;;;;;5115711;27;20034;-85
2022/02/09 09:01:37;;;;;;;11.73;6.68;;;7.80;69.40;;;;;;5115587;27;20023;-76
2022/02/09 09:04:14;;;;;;;12.60;5.88;;;7.80;69.40;;;;;;5134047;27;20028;-75
2022/02/09 09:06:42;;;;;;;11.07;5.35;;;7.50;70.30;;;;;;5115015;27;20477;-76
2022/02/09 09:09:25;;;;;;;11.00;4.80;;;7.40;71.70;;;;;;5115455;27;20039;-76
2022/02/09 10:03:33;;;;;;;5.38;3.40;;;9.40;69.30;;;;;;5132852;28;20106;-75
2022/02/09 10:34:19;;;;;;;3.78;1.80;;;12.50;57.40;;;;;;5137005;27;20038;-75
2022/02/09 10:36:50;;;;;;;6.45;2.15;;;12.60;57.40;;;;;;5118392;27;20027;-75
2022/02/09 10:39:42;;;;;;;2.72;1.85;;;12.70;57.50;;;;;;5118177;27;20023;-76
2022/02/09 10:42:21;;;;;;;4.35;2.00;;;12.90;56.60;;;;;;5136363;27;20030;-76
2022/02/09 10:44:52;;;;;;;6.40;3.60;;;13.30;56.10;;;;;;5118013;27;20092;-75
2022/02/09 10:47:36;;;;;;;8.60;2.75;;;13.50;54.80;;;;;;5118042;27;20099;-76
2022/02/09 10:50:07;;;;;;;4.53;2.70;;;13.70;54.70;;;;;;5117876;27;20114;-76
2022/02/09 10:52:42;;;;;;;4.75;2.05;;;14.00;53.60;;;;;;5136214;27;20015;-74
2022/02/09 10:55:34;;;;;;;8.07;1.95;;;14.20;52.10;;;;;;5117819;27;20118;-74
2022/02/09 10:58:11;;;;;;;6.05;1.83;;;14.40;51.80;;;;;;5117816;27;20046;-75
2022/02/09 11:00:43;;;;;;;4.15;1.98;;;14.70;50.60;;;;;;5117744;27;20015;-75
2022/02/09 11:03:18;;;;;;;3.22;1.80;;;14.40;49.70;;;;;;5117596;27;20534;-74
2022/02/09 11:05:48;;;;;;;2.83;1.73;;;14.60;49.20;;;;;;5117582;27;20031;-75
2022/02/09 11:08:15;;;;;;;3.28;1.67;;;14.80;48.90;;;;;;5117284;27;20113;-76
2022/02/09 11:10:43;;;;;;;2.05;1.48;;;15.10;48.50;;;;;;5136023;27;20038;-75
2022/02/09 11:13:12;;;;;;;3.88;1.52;;;15.20;46.40;;;;;;5117384;27;20080;-75
2022/02/09 11:15:45;;;;;;;7.15;2.17;;;15.40;46.30;;;;;;5117246;27;20062;-74
2022/02/09 11:18:15;;;;;;;4.82;1.55;;;15.60;45.50;;;;;;5117211;27;20024;-75
2022/02/09 11:20:57;;;;;;;1.80;1.17;;;15.50;45.20;;;;;;5117409;27;20390;-75
2022/02/09 11:23:53;;;;;;;4.63;1.50;;;15.70;44.90;;;;;;5117114;27;20091;-75
2022/02/09 11:26:36;;;;;;;4.35;2.10;;;15.90;43.90;;;;;;5135680;27;20027;-74
2022/02/09 11:29:35;;;;;;;3.72;1.67;;;16.00;43.90;;;;;;5117001;27;20076;-75
2022/02/09 11:32:12;;;;;;;2.53;1.30;;;16.20;43.00;;;;;;5117240;27;20023;-74
2022/02/09 11:40:40;;;;;;;3.85;1.60;;;16.70;41.00;;;;;;5135454;27;20026;-73
2022/02/09 11:43:21;;;;;;;1.92;1.05;;;17.00;41.10;;;;;;5116879;27;20106;-74
2022/02/09 11:49:12;;;;;;;1.50;0.98;;;17.60;36.80;;;;;;5135179;27;20066;-74
2022/02/09 12:11:40;;;;;;;3.65;1.10;;;17.50;35.00;;;;;;5135030;27;20026;-73
2022/02/09 12:19:12;;;;;;;2.47;1.15;;;18.30;34.20;;;;;;5134702;27;20019;-75
2022/02/09 12:22:04;;;;;;;5.22;1.20;;;18.50;33.70;;;;;;5116287;27;20138;-75
2022/02/09 12:24:32;;;;;;;5.13;1.00;;;18.70;33.60;;;;;;5134688;27;20030;-73
2022/02/09 12:27:08;;;;;;;5.03;1.92;;;19.00;32.90;;;;;;5134388;27;20475;-73
2022/02/09 12:29:38;;;;;;;2.67;1.10;;;19.30;31.90;;;;;;5134292;27;20024;-75
2022/02/09 12:32:15;;;;;;;1.95;0.73;;;19.60;30.60;;;;;;5134333;27;20019;-73
2022/02/09 12:34:55;;;;;;;4.78;0.88;;;19.70;29.20;;;;;;5134305;27;20023;-75
2022/02/09 12:37:22;;;;;;;2.20;0.93;;;19.80;28.10;;;;;;5115937;27;20027;-74
2022/02/09 12:40:03;;;;;;;1.90;0.85;;;20.00;27.50;;;;;;5115841;27;20038;-74
2022/02/09 12:42:37;;;;;;;8.55;1.20;;;20.30;27.30;;;;;;5115380;27;20054;-74
2022/02/09 12:45:12;;;;;;;5.05;1.58;;;20.40;26.70;;;;;;5115665;27;20024;-74
2022/02/09 12:47:47;;;;;;;4.38;1.90;;;20.60;26.40;;;;;;5115918;27;20035;-75
2022/02/09 12:50:16;;;;;;;5.10;1.10;;;20.80;26.70;;;;;;5134222;27;20120;-81
2022/02/09 12:52:44;;;;;;;2.92;1.17;;;21.20;27.30;;;;;;5115575;27;20015;-75
2022/02/09 12:55:19;;;;;;;2.45;1.20;;;21.40;25.20;;;;;;5115353;27;20026;-73
2022/02/09 12:57:52;;;;;;;4.72;1.30;;;21.40;26.00;;;;;;5115380;27;20087;-74
2022/02/09 13:00:28;;;;;;;3.22;1.30;;;21.20;24.70;;;;;;5115691;27;20030;-77
2022/02/09 13:02:59;;;;;;;4.97;0.90;;;20.90;24.90;;;;;;5134468;27;20038;-77
2022/02/09 13:05:26;;;;;;;2.28;1.05;;;21.00;25.70;;;;;;5134910;27;20079;-73
2022/02/09 13:07:56;;;;;;;3.72;1.33;;;21.20;26.60;;;;;;5118728;27;20041;-73
2022/02/09 13:10:24;;;;;;;1.65;1.13;;;21.40;26.70;;;;;;5137458;27;20050;-75
2022/02/09 13:12:50;;;;;;;5.30;1.48;;;21.80;24.90;;;;;;5139039;27;20023;-75
2022/02/09 13:15:24;;;;;;;2.90;1.23;;;22.10;24.00;;;;;;5141831;27;20043;-75
2022/02/09 13:23:30;;;;;;;1.92;1.00;;;23.40;22.10;;;;;;5134467;28;20386;-74
2022/02/09 13:26:41;;;;;;;2.05;0.88;;;24.10;20.70;;;;;;5115938;28;20074;-78
2022/02/09 14:02:51;;;;;;;3.25;1.27;;;34.00;10.60;;;;;;5135549;27;20031;-77
2022/02/09 14:31:44;;;;;;;3.05;1.02;;;42.00;4.00;;;;;;5137015;27;20048;-74
2022/02/09 14:51:26;;;;;;;1.00;0.60;;;40.20;4.50;;;;;;5136224;27;20060;-75
2022/02/09 14:54:10;;;;;;;1.63;0.80;;;40.10;4.20;;;;;;5136029;27;20023;-75
2022/02/09 14:59:18;;;;;;;5.00;1.70;;;39.70;4.50;;;;;;5136252;27;20020;-75
2022/02/09 15:01:53;;;;;;;2.42;1.15;;;39.80;4.50;;;;;;5117726;27;20391;-75
2022/02/09 15:04:29;;;;;;;3.83;1.10;;;40.20;4.40;;;;;;5116869;27;20072;-75
2022/02/09 15:09:39;;;;;;;6.30;1.50;;;41.50;3.60;;;;;;5135872;27;20102;-75
2022/02/09 15:12:19;;;;;;;2.20;1.20;;;41.80;3.20;;;;;;5117576;27;20448;-75
2022/02/09 15:15:22;;;;;;;2.20;1.08;;;42.00;3.40;;;;;;5117102;27;20046;-75
2022/02/09 15:22:40;;;;;;;4.45;1.45;;;41.00;3.70;;;;;;5135927;27;20023;-76
2022/02/09 15:25:15;;;;;;;3.92;1.58;;;40.30;3.80;;;;;;5116783;27;20110;-74
2022/02/09 15:27:41;;;;;;;2.40;1.30;;;39.80;3.90;;;;;;5135238;27;20050;-72
2022/02/09 15:30:07;;;;;;;4.60;1.10;;;39.20;4.30;;;;;;5135045;27;20467;-72
2022/02/09 15:32:40;;;;;;;1.88;1.02;;;38.70;5.10;;;;;;5135363;27;20025;-72
2022/02/09 15:40:13;;;;;;;3.38;1.85;;;37.30;6.00;;;;;;5135316;27;20102;-72
2022/02/09 15:56:22;;;;;;;8.52;3.85;;;35.40;7.20;;;;;;5135249;27;20397;-73
2022/02/09 16:23:03;;;;;;;4.88;2.08;;;21.10;21.60;;;;;;5134690;27;20065;-75
2022/02/09 16:33:53;;;;;;;5.57;3.20;;;16.60;31.40;;;;;;5134830;27;20168;-75
2022/02/09 16:36:59;;;;;;;6.78;3.78;;;15.80;33.70;;;;;;5134076;27;20524;-76
2022/02/09 16:46:56;;;;;;;7.10;2.15;;;13.50;39.60;;;;;;5134205;27;20035;-79
2022/02/09 16:49:39;;;;;;;6.32;2.88;;;13.20;40.30;;;;;;5134177;27;20064;-77
2022/02/09 16:52:21;;;;;;;7.80;2.38;;;12.90;41.10;;;;;;5133855;27;20110;-75
2022/02/09 16:54:57;;;;;;;4.38;2.67;;;12.60;42.30;;;;;;5115780;27;20470;-74
2022/02/09 17:08:26;;;;;;;8.20;3.25;;;12.20;43.50;;;;;;5134261;27;20110;-75
2022/02/09 17:08:36;;;;;;;10.93;6.15;;;11.80;45.50;;;;;;5134423;27;20130;-76
2022/02/09 17:15:29;;;;;;;7.63;4.38;;;11.60;46.10;;;;;;5134098;27;20023;-77
2022/02/09 17:19:33;;;;;;;7.72;3.58;;;11.10;47.40;;;;;;5134226;27;20052;-76
2022/02/09 17:21:59;;;;;;;8.02;3.80;;;10.70;48.30;;;;;;5115695;28;20097;-76
2022/02/09 17:24:25;;;;;;;9.18;4.63;;;10.50;49.10;;;;;;5134129;28;20023;-75
2022/02/09 17:26:53;;;;;;;9.63;3.85;;;10.20;49.80;;;;;;5115223;28;20099;-75
2022/02/09 17:29:23;;;;;;;12.57;6.60;;;10.10;50.70;;;;;;5115419;28;20077;-75
2022/02/09 17:55:52;;;;;;;10.38;5.18;;;9.20;54.00;;;;;;5133701;28;20442;-77
2022/02/09 17:58:21;;;;;;;10.25;5.40;;;9.10;54.30;;;;;;5133574;28;20106;-75
2022/02/09 18:00:50;;;;;;;11.27;5.47;;;9.00;54.90;;;;;;5115411;28;20031;-76
2022/02/09 18:03:16;;;;;;;12.50;6.18;;;8.80;55.10;;;;;;5115267;28;20027;-75
2022/02/09 18:05:51;;;;;;;17.00;8.30;;;8.90;55.00;;;;;;5133820;28;20027;-76
2022/02/09 18:08:23;;;;;;;17.02;8.75;;;8.90;55.30;;;;;;5115552;28;20065;-76
2022/02/09 18:11:05;;;;;;;14.75;7.88;;;8.90;55.60;;;;;;5115630;28;20546;-75
2022/02/09 18:32:16;;;;;;;13.68;6.63;;;8.30;56.80;;;;;;5133207;28;20041;-79
2022/02/09 18:42:58;;;;;;;13.75;6.47;;;8.20;57.30;;;;;;5093874;28;20082;-75
2022/02/09 19:07:12;;;;;;;13.27;7.30;;;8.10;56.30;;;;;;5087709;28;20142;-79
2022/02/09 19:17:36;;;;;;;11.77;6.80;;;7.70;58.30;;;;;;5115676;28;20024;-78
2022/02/09 19:20:21;;;;;;;14.20;7.43;;;7.70;58.20;;;;;;5114398;28;20020;-78
2022/02/09 19:31:18;;;;;;;11.45;6.70;;;7.40;59.60;;;;;;5115635;28;20368;-80
2022/02/09 19:47:42;;;;;;;12.68;6.60;;;7.10;61.50;;;;;;5115245;28;20491;-76
2022/02/09 19:53:22;;;;;;;13.30;7.05;;;6.90;61.30;;;;;;5115095;28;20050;-77
2022/02/09 19:55:57;;;;;;;13.75;7.03;;;7.00;61.70;;;;;;5113782;28;20070;-82
2022/02/09 19:58:34;;;;;;;17.50;7.88;;;7.00;61.10;;;;;;5113502;28;20433;-74
2022/02/09 20:01:00;;;;;;;16.13;7.85;;;6.90;61.40;;;;;;5113287;28;20076;-76
2022/02/09 20:03:27;;;;;;;17.25;9.02;;;6.70;62.40;;;;;;5113286;28;20115;-80
2022/02/09 20:05:52;;;;;;;16.83;8.60;;;6.60;62.30;;;;;;5096164;28;20047;-79
2022/02/09 20:08:18;;;;;;;14.77;8.15;;;6.40;63.60;;;;;;5113225;28;20020;-80
2022/02/09 20:10:43;;;;;;;14.70;7.30;;;6.50;63.60;;;;;;5113183;28;20048;-77
2022/02/09 20:13:09;;;;;;;15.43;7.40;;;6.50;63.40;;;;;;5113028;28;20407;-79
2022/02/09 20:15:35;;;;;;;14.63;7.47;;;6.50;63.00;;;;;;5112956;28;20047;-77
2022/02/09 20:18:00;;;;;;;14.55;7.63;;;6.40;63.50;;;;;;5113169;28;20467;-77
2022/02/09 20:20:28;;;;;;;13.05;6.55;;;6.20;63.90;;;;;;5113106;28;20043;-75
2022/02/09 20:22:56;;;;;;;13.93;7.15;;;6.10;64.60;;;;;;5113026;28;20031;-78
2022/02/09 20:25:23;;;;;;;14.43;7.68;;;6.10;64.90;;;;;;5113033;28;20468;-79
2022/02/09 20:27:52;;;;;;;14.95;7.40;;;6.20;64.60;;;;;;5113111;28;20031;-76
2022/02/09 20:30:21;;;;;;;15.75;7.88;;;6.20;63.90;;;;;;5113039;28;20386;-78
2022/02/09 20:32:52;;;;;;;13.00;8.07;;;6.30;63.90;;;;;;5113038;28;20391;-77
2022/02/09 20:35:19;;;;;;;15.57;8.40;;;6.30;63.60;;;;;;5113373;28;20536;-76
2022/02/09 20:37:49;;;;;;;16.02;8.10;;;6.00;64.20;;;;;;5114115;28;20042;-83
2022/02/09 20:40:21;;;;;;;13.77;7.55;;;6.10;64.60;;;;;;5113294;28;20110;-79
2022/02/09 20:42:59;;;;;;;17.83;8.25;;;6.00;64.90;;;;;;5114362;28;20054;-82
2022/02/09 20:45:37;;;;;;;14.88;7.32;;;6.10;64.90;;;;;;5122833;28;20024;-77
2022/02/09 20:48:07;;;;;;;16.75;7.47;;;6.10;64.20;;;;;;5135992;28;20039;-78
2022/02/09 20:50:35;;;;;;;12.65;7.50;;;6.10;64.00;;;;;;5137743;27;20035;-80
2022/02/09 20:53:01;;;;;;;15.30;7.47;;;6.10;64.30;;;;;;5136636;27;20019;-77
2022/02/09 20:55:27;;;;;;;13.45;7.43;;;6.00;64.00;;;;;;5129893;28;20030;-75
2022/02/09 20:57:53;;;;;;;15.13;7.25;;;6.00;64.00;;;;;;5115773;28;20020;-82
2022/02/09 21:00:32;;;;;;;15.65;7.93;;;6.10;63.70;;;;;;5114860;28;20062;-76
2022/02/09 21:05:53;;;;;;;14.07;7.82;;;6.00;63.70;;;;;;5116160;28;20023;-78
2022/02/09 21:13:48;;;;;;;19.45;8.68;;;5.80;64.90;;;;;;5113910;27;20529;-78
2022/02/09 21:16:40;;;;;;;18.25;8.15;;;5.80;64.10;;;;;;5112423;28;20052;-78
2022/02/09 21:24:58;;;;;;;17.35;7.28;;;5.90;65.00;;;;;;5084365;28;20490;-75
2022/02/09 21:52:03;;;;;;;14.52;7.72;;;4.60;68.50;;;;;;5113568;28;20038;-76
2022/02/09 21:56:19;;;;;;;16.05;7.70;;;4.50;68.90;;;;;;5113296;28;20024;-75
2022/02/09 22:06:47;;;;;;;14.15;7.13;;;4.50;68.80;;;;;;5113261;28;20092;-75
2022/02/09 22:28:53;;;;;;;12.02;6.75;;;4.40;68.20;;;;;;5117088;28;20447;-76
2022/02/09 22:31:38;;;;;;;14.30;6.65;;;4.40;68.10;;;;;;5115538;28;20027;-76
2022/02/09 22:47:58;;;;;;;11.73;5.50;;;4.20;67.80;;;;;;5116396;28;20092;-75
2022/02/09 22:50:27;;;;;;;13.75;6.60;;;4.30;67.90;;;;;;5116144;28;20100;-75
2022/02/09 22:55:44;;;;;;;12.93;5.50;;;4.30;67.20;;;;;;5116291;28;20038;-75
2022/02/09 22:58:12;;;;;;;9.40;5.60;;;4.30;67.20;;;;;;5114966;28;20534;-75
2022/02/09 23:03:43;;;;;;;11.85;5.10;;;4.20;66.60;;;;;;5116379;28;20057;-75
2022/02/09 23:09:13;;;;;;;11.93;5.72;;;4.20;66.70;;;;;;5116148;28;20409;-76
2022/02/09 23:14:43;;;;;;;13.95;5.18;;;4.20;66.70;;;;;;5115773;28;20121;-76
